Time;durP1;ratioP1;P1;durP2;ratioP2;P2;SDS_P1;SDS_P2;PMS_P1;PMS_P2;Temp;Humidity;BMP_temperature;BMP_pressure;BME280_temperature;BME280_humidity;BME280_pressure;Samples;Min_cycle;Max_cycle;Signal;HPM_P1;HPM_P2
2022/05/25 00:00:09;;;;;;;478.75;366.17;;;;;;;15.52;55.36;100700.63;690047;28;45247;-65
2022/05/25 00:00:31;;;;;;;480.10;371.45;;;;;;;15.49;55.09;100705.44;687672;28;113444;-65
2022/05/25 00:00:55;;;;;;;479.38;366.58;;;;;;;15.49;55.30;100696.44;690815;28;21514;-65
2022/05/25 00:01:16;;;;;;;476.80;361.65;;;;;;;15.44;55.10;100691.63;687037;28;90425;-65
2022/05/25 00:01:38;;;;;;;476.08;357.15;;;;;;;15.43;55.25;100695.38;689560;28;21265;-65
2022/05/25 00:02:00;;;;;;;477.63;357.42;;;;;;;15.48;55.43;100701.03;668196;27;46432;-66
2022/05/25 00:02:22;;;;;;;476.15;352.15;;;;;;;15.46;55.23;100715.91;691682;28;67445;-66
2022/05/25 00:02:44;;;;;;;476.98;354.00;;;;;;;15.46;55.27;100707.75;693025;28;46280;-65
2022/05/25 00:03:07;;;;;;;477.38;359.67;;;;;;;15.45;55.64;100715.09;692564;28;46263;-65
2022/05/25 00:03:29;;;;;;;477.27;362.98;;;;;;;15.46;55.22;100700.41;691612;28;69405;-65
2022/05/25 00:03:50;;;;;;;477.13;360.77;;;;;;;15.46;55.35;100707.75;692080;28;46313;-65
2022/05/25 00:04:11;;;;;;;478.88;366.42;;;;;;;15.45;55.56;100706.06;690526;28;21302;-65
2022/05/25 00:04:33;;;;;;;480.27;372.33;;;;;;;15.47;55.33;100707.53;690763;28;23461;-65
2022/05/25 00:04:54;;;;;;;481.13;381.33;;;;;;;15.45;55.55;100708.78;690005;28;44377;-65
2022/05/25 00:05:16;;;;;;;480.73;381.92;;;;;;;15.46;55.42;100715.91;690671;28;24351;-65
2022/05/25 00:05:38;;;;;;;481.55;383.58;;;;;;;15.45;55.28;100709.66;689959;28;45298;-66
2022/05/25 00:06:00;;;;;;;480.75;381.30;;;;;;;15.46;55.57;100711.31;689923;28;46665;-65
2022/05/25 00:06:22;;;;;;;483.08;390.05;;;;;;;15.47;55.52;100712.97;690877;28;21256;-65
2022/05/25 00:06:44;;;;;;;482.92;388.70;;;;;;;15.47;55.33;100709.44;688952;28;46493;-66
2022/05/25 00:07:05;;;;;;;485.67;392.48;;;;;;;15.48;55.31;100722.81;689383;28;45236;-66
2022/05/25 00:07:27;;;;;;;486.48;397.20;;;;;;;15.48;55.16;100709.19;690291;28;22404;-65
2022/05/25 00:07:49;;;;;;;485.88;403.17;;;;;;;15.49;55.28;100713.59;689616;28;45031;-65
2022/05/25 00:08:13;;;;;;;484.33;398.02;;;;;;;15.49;55.51;100710.88;689952;28;46304;-65
2022/05/25 00:08:34;;;;;;;485.80;397.42;;;;;;;15.53;55.35;100710.47;688318;28;90710;-66
2022/05/25 00:08:55;;;;;;;486.08;404.13;;;;;;;15.53;55.37;100715.91;690478;28;22458;-66
2022/05/25 00:09:17;;;;;;;485.90;404.65;;;;;;;15.53;55.14;100711.28;689476;28;45157;-66
2022/05/25 00:09:39;;;;;;;488.67;411.35;;;;;;;15.54;55.29;100723.03;689967;28;44408;-65
2022/05/25 00:10:00;;;;;;;486.55;409.35;;;;;;;15.54;55.20;100723.03;690932;28;15648;-66
2022/05/25 00:10:21;;;;;;;485.40;402.77;;;;;;;15.54;55.31;100718.41;690781;28;23835;-65
2022/05/25 00:10:43;;;;;;;485.60;403.55;;;;;;;15.54;55.42;100721.13;692034;28;21529;-65
2022/05/25 00:11:05;;;;;;;487.45;414.02;;;;;;;15.53;55.09;100724.91;688900;28;46462;-65
2022/05/25 00:11:26;;;;;;;487.80;412.27;;;;;;;15.53;55.44;100714.00;689983;28;46453;-66
2022/05/25 00:11:48;;;;;;;487.65;408.08;;;;;;;15.53;54.87;100726.78;665185;28;44368;-66
2022/05/25 00:12:10;;;;;;;487.33;407.83;;;;;;;15.50;55.16;100726.19;692626;28;44372;-66
2022/05/25 00:12:32;;;;;;;485.58;402.08;;;;;;;15.47;55.12;100720.31;693525;28;22649;-65
2022/05/25 00:12:53;;;;;;;485.42;396.73;;;;;;;15.44;55.29;100718.84;692721;28;22394;-65
2022/05/25 00:13:15;;;;;;;483.27;390.80;;;;;;;15.40;55.24;100723.03;692356;28;44029;-66
2022/05/25 00:13:36;;;;;;;484.37;395.50;;;;;;;15.37;55.52;100725.34;693205;28;23467;-66
2022/05/25 00:13:57;;;;;;;483.70;395.48;;;;;;;15.33;55.11;100722.22;690985;28;43771;-65
2022/05/25 00:14:19;;;;;;;484.05;398.63;;;;;;;15.31;55.22;100722.41;690745;28;24146;-65
2022/05/25 00:14:41;;;;;;;483.83;395.30;;;;;;;15.29;55.54;100720.94;691004;28;22402;-66
2022/05/25 00:15:03;;;;;;;484.05;398.20;;;;;;;15.28;55.84;100717.38;688642;28;45113;-66
2022/05/25 00:15:24;;;;;;;485.38;400.15;;;;;;;15.25;55.60;100719.66;689199;28;45296;-65
2022/05/25 00:15:45;;;;;;;483.83;391.13;;;;;;;15.23;55.70;100719.03;690928;28;21403;-65
2022/05/25 00:16:06;;;;;;;483.35;388.52;;;;;;;15.22;55.75;100723.66;690401;28;22396;-66
2022/05/25 00:16:28;;;;;;;482.92;386.42;;;;;;;15.19;55.60;100721.34;691090;28;21528;-66
2022/05/25 00:16:49;;;;;;;484.25;391.70;;;;;;;15.18;55.73;100716.13;689137;28;44410;-65
2022/05/25 00:17:10;;;;;;;485.50;393.10;;;;;;;15.18;55.74;100714.22;689166;28;46337;-66
2022/05/25 00:17:31;;;;;;;486.70;404.52;;;;;;;15.19;55.66;100717.78;690825;28;22482;-65
2022/05/25 00:17:54;;;;;;;485.52;405.77;;;;;;;15.19;55.84;100724.06;690240;28;23458;-65
2022/05/25 00:18:15;;;;;;;485.63;404.65;;;;;;;15.18;55.94;100722.38;689485;28;46296;-66
2022/05/25 00:18:36;;;;;;;487.55;410.27;;;;;;;15.16;55.80;100719.06;689406;28;46303;-65
2022/05/25 00:20:18;;;;;;;482.45;383.33;;;;;;;15.17;55.92;100714.44;686550;28;137332;-65
2022/05/25 00:20:39;;;;;;;483.35;385.77;;;;;;;15.16;55.93;100716.34;689802;28;44429;-65
2022/05/25 00:21:01;;;;;;;481.75;382.63;;;;;;;15.17;55.79;100719.88;690462;28;22303;-66
2022/05/25 00:21:22;;;;;;;484.40;391.35;;;;;;;15.17;55.50;100717.97;690646;28;69334;-65
2022/05/25 00:21:43;;;;;;;481.63;385.10;;;;;;;15.19;55.65;100721.34;689918;28;21641;-66
2022/05/25 00:22:04;;;;;;;481.77;389.00;;;;;;;15.20;55.50;100722.19;690668;28;21524;-65
2022/05/25 00:22:27;;;;;;;482.90;391.98;;;;;;;15.20;55.92;100723.00;690895;28;22390;-66
2022/05/25 00:22:50;;;;;;;482.60;394.27;;;;;;;15.22;55.71;100723.66;689257;28;69437;-65
2022/05/25 00:23:12;;;;;;;480.58;389.80;;;;;;;15.22;55.93;100720.94;689881;28;46396;-65
2022/05/25 00:23:33;;;;;;;482.17;388.95;;;;;;;15.24;55.66;100716.13;689200;28;69685;-66
2022/05/25 00:23:55;;;;;;;480.95;384.83;;;;;;;15.27;55.85;100721.16;690552;28;23501;-65
2022/05/25 00:24:16;;;;;;;480.20;381.75;;;;;;;15.29;55.60;100719.03;689743;28;45252;-65
2022/05/25 00:24:37;;;;;;;481.60;382.50;;;;;;;15.31;55.62;100721.56;689901;28;21513;-65
2022/05/25 00:24:58;;;;;;;483.15;389.58;;;;;;;15.32;55.43;100721.34;690709;28;23297;-66
2022/05/25 00:25:23;;;;;;;483.48;394.77;;;;;;;15.34;55.48;100725.75;690650;28;22400;-66
2022/05/25 00:25:44;;;;;;;485.42;397.30;;;;;;;15.35;55.55;100722.00;687879;28;92541;-65
2022/05/25 00:26:05;;;;;;;484.85;397.73;;;;;;;15.37;55.45;100725.34;690625;28;45366;-65
2022/05/25 00:26:26;;;;;;;483.10;393.52;;;;;;;15.38;55.35;100729.75;692059;28;22512;-65
2022/05/25 00:26:48;;;;;;;484.23;393.85;;;;;;;15.39;55.03;100726.81;691163;28;22400;-66
2022/05/25 00:27:09;;;;;;;483.50;387.90;;;;;;;15.40;55.17;100728.47;690019;28;45223;-65
2022/05/25 00:27:31;;;;;;;481.05;382.17;;;;;;;15.42;54.97;100728.25;690368;28;22246;-65
2022/05/25 00:27:52;;;;;;;479.88;377.83;;;;;;;15.43;54.86;100727.22;690867;28;21337;-65
2022/05/25 00:28:15;;;;;;;480.13;377.00;;;;;;;15.43;54.92;100716.34;691692;28;23431;-65
2022/05/25 00:28:36;;;;;;;480.27;376.38;;;;;;;15.43;55.21;100725.31;689314;28;69634;-65
2022/05/25 00:28:57;;;;;;;479.20;372.35;;;;;;;15.43;55.10;100730.78;692366;28;4036;-65
2022/05/25 00:29:18;;;;;;;478.52;369.38;;;;;;;15.44;54.86;100729.75;690627;28;44366;-66
2022/05/25 00:29:40;;;;;;;479.30;368.63;;;;;;;15.45;54.75;100730.56;691424;28;22400;-65
2022/05/25 00:30:01;;;;;;;478.58;365.17;;;;;;;15.45;54.97;100723.25;690270;28;45363;-66
2022/05/25 00:30:23;;;;;;;476.88;359.98;;;;;;;15.45;54.77;100728.69;690992;28;22447;-66
2022/05/25 00:30:45;;;;;;;475.95;354.15;;;;;;;15.43;54.71;100732.66;690467;28;22414;-66
2022/05/25 00:31:08;;;;;;;475.42;351.98;;;;;;;15.45;54.77;100730.56;691458;28;46433;-66
2022/05/25 00:31:30;;;;;;;475.77;350.67;;;;;;;15.45;54.88;100738.72;689553;28;68365;-66
2022/05/25 00:31:52;;;;;;;476.83;350.67;;;;;;;15.43;54.77;100732.66;689326;28;69381;-65
2022/05/25 00:32:13;;;;;;;474.58;347.23;;;;;;;15.40;55.01;100723.03;691531;28;21532;-65
2022/05/25 00:32:34;;;;;;;475.73;352.70;;;;;;;15.39;54.88;100724.09;691904;28;21508;-66
2022/05/25 00:32:57;;;;;;;475.48;348.92;;;;;;;15.39;54.86;100734.97;691447;28;22393;-65
2022/05/25 00:33:20;;;;;;;476.73;355.65;;;;;;;15.39;55.18;100734.13;688253;28;67107;-65
2022/05/25 00:33:42;;;;;;;475.27;354.48;;;;;;;15.38;54.84;100730.56;689564;28;92275;-65
2022/05/25 00:34:03;;;;;;;476.02;356.60;;;;;;;15.38;54.79;100733.28;690864;28;21520;-65
2022/05/25 00:34:25;;;;;;;476.25;355.77;;;;;;;15.36;55.08;100731.81;690833;28;22400;-65
2022/05/25 00:34:46;;;;;;;477.65;359.73;;;;;;;15.37;55.17;100734.31;691784;28;1435;-65
2022/05/25 00:35:16;;;;;;;477.65;364.98;;;;;;;15.36;55.07;100731.81;689902;28;61637;-66
2022/05/25 00:35:38;;;;;;;477.35;364.88;;;;;;;15.36;55.01;100734.53;688398;28;92264;-65
2022/05/25 00:36:00;;;;;;;478.92;369.83;;;;;;;15.35;55.18;100730.16;689413;28;46325;-65
2022/05/25 00:36:21;;;;;;;479.73;371.98;;;;;;;15.34;55.23;100731.19;689391;28;44384;-65
2022/05/25 00:36:43;;;;;;;479.40;371.77;;;;;;;15.34;55.12;100739.34;690530;28;22425;-66
2022/05/25 00:37:04;;;;;;;482.80;378.60;;;;;;;15.32;54.84;100737.69;690616;28;22383;-65
2022/05/25 00:37:26;;;;;;;482.55;381.00;;;;;;;15.32;54.91;100734.13;690859;28;23495;-65
2022/05/25 00:37:47;;;;;;;481.55;379.55;;;;;;;15.32;55.14;100734.13;689182;28;69373;-66
2022/05/25 00:38:09;;;;;;;481.05;381.00;;;;;;;15.29;54.98;100729.09;691158;28;21322;-65
2022/05/25 00:38:32;;;;;;;481.88;380.52;;;;;;;15.28;55.07;100731.00;690531;28;44153;-65
2022/05/25 00:38:53;;;;;;;481.75;382.15;;;;;;;15.31;54.80;100737.88;690867;28;44006;-65
2022/05/25 00:39:15;;;;;;;480.88;381.40;;;;;;;15.30;54.72;100730.78;691931;28;22371;-65
2022/05/25 00:39:38;;;;;;;482.75;387.00;;;;;;;15.31;54.91;100732.44;689413;28;45349;-66
2022/05/25 00:39:59;;;;;;;480.85;379.08;;;;;;;15.32;54.74;100731.41;689181;28;69488;-65
2022/05/25 00:40:33;;;;;;;480.45;377.30;;;;;;;15.31;54.66;100724.28;690944;28;22400;-66
2022/05/25 00:40:57;;;;;;;483.48;388.67;;;;;;;15.31;54.63;100733.28;687350;28;137555;-66
2022/05/25 00:41:22;;;;;;;482.35;387.25;;;;;;;15.30;54.79;100734.34;689072;28;69472;-66
2022/05/25 00:41:44;;;;;;;484.83;393.73;;;;;;;15.29;54.77;100729.94;681066;28;115244;-66
2022/05/25 00:42:06;;;;;;;484.05;392.65;;;;;;;15.28;54.83;100738.28;680256;28;45233;-65
2022/05/25 00:42:27;;;;;;;482.95;384.42;;;;;;;15.28;54.82;100730.13;689960;28;46337;-65
2022/05/25 00:42:50;;;;;;;483.17;382.45;;;;;;;15.27;55.09;100733.91;691080;28;22404;-66
2022/05/25 00:43:13;;;;;;;481.15;378.70;;;;;;;15.26;54.69;100729.50;688696;28;70282;-65
2022/05/25 00:43:34;;;;;;;482.42;379.58;;;;;;;15.26;55.00;100726.78;689883;28;45231;-65
2022/05/25 00:43:55;;;;;;;482.52;384.45;;;;;;;15.24;55.08;100728.91;691240;28;22405;-65
2022/05/25 00:44:17;;;;;;;480.70;382.17;;;;;;;15.24;55.24;100728.91;689889;28;46330;-65
2022/05/25 00:44:38;;;;;;;483.55;386.08;;;;;;;15.23;54.90;100727.22;689546;28;46339;-66
2022/05/25 00:44:59;;;;;;;483.90;388.20;;;;;;;15.23;55.04;100728.03;690617;28;23317;-65
2022/05/25 00:45:20;;;;;;;483.65;391.23;;;;;;;15.23;54.89;100728.03;692402;28;22348;-65
2022/05/25 00:45:45;;;;;;;484.23;390.75;;;;;;;15.23;54.92;100729.94;692258;27;22381;-65
2022/05/25 00:46:10;;;;;;;482.98;388.25;;;;;;;15.19;55.03;100726.78;687314;28;113582;-65
2022/05/25 00:46:32;;;;;;;484.75;397.23;;;;;;;15.18;54.94;100724.28;688532;28;92134;-65
2022/05/25 00:46:54;;;;;;;484.33;392.83;;;;;;;15.21;54.79;100729.31;688079;28;69444;-65
2022/05/25 00:47:21;;;;;;;483.30;395.38;;;;;;;15.20;55.10;100728.44;688280;28;46320;-65
2022/05/25 00:47:44;;;;;;;485.08;407.52;;;;;;;15.21;55.00;100729.31;686005;28;159076;-65
2022/05/25 00:48:09;;;;;;;481.60;389.50;;;;;;;15.18;55.03;100721.56;688218;28;92280;-65
2022/05/25 00:48:37;;;;;;;481.25;385.15;;;;;;;15.20;54.79;100723.00;687901;28;90311;-65
2022/05/25 00:49:01;;;;;;;482.92;394.70;;;;;;;15.21;55.03;100732.03;685709;28;160565;-65
2022/05/25 00:49:24;;;;;;;481.77;392.13;;;;;;;15.19;55.19;100723.22;687493;28;114893;-65
2022/05/25 00:49:46;;;;;;;483.25;397.38;;;;;;;15.21;55.19;100729.31;689316;28;69403;-65
2022/05/25 00:50:09;;;;;;;481.08;385.17;;;;;;;15.20;55.16;100725.72;689839;28;45277;-65
2022/05/25 00:51:12;;;;;;;483.02;392.98;;;;;;;15.20;55.23;100722.19;689926;28;66458;-65
2022/05/25 00:51:16;;;;;;;482.15;391.65;;;;;;;15.19;54.92;100725.94;687696;28;135260;-66
2022/05/25 00:51:40;;;;;;;480.50;384.00;;;;;;;15.20;54.87;100722.19;688535;28;115152;-65
2022/05/25 00:52:04;;;;;;;482.13;383.27;;;;;;;15.19;55.25;100721.34;687808;28;115091;-65
2022/05/25 00:52:26;;;;;;;483.23;382.73;;;;;;;15.13;55.00;100711.31;691833;28;7785;-65
2022/05/25 00:52:49;;;;;;;482.13;378.05;;;;;;;15.19;55.33;100726.78;689387;28;45261;-65
2022/05/25 00:53:10;;;;;;;480.08;374.73;;;;;;;15.20;54.87;100720.28;688988;28;69311;-66
2022/05/25 00:53:34;;;;;;;480.35;378.33;;;;;;;15.19;54.81;100724.06;689871;28;46646;-65
2022/05/25 00:53:58;;;;;;;478.88;368.25;;;;;;;15.18;55.15;100719.66;688568;28;91642;-65
2022/05/25 00:54:22;;;;;;;479.80;370.33;;;;;;;15.18;55.00;100721.56;688133;28;92460;-65
2022/05/25 00:54:46;;;;;;;479.10;366.02;;;;;;;15.17;54.88;100717.97;688405;28;92303;-65
2022/05/25 00:55:09;;;;;;;478.40;363.55;;;;;;;15.19;55.33;100715.06;687749;28;115086;-65
2022/05/25 00:55:30;;;;;;;477.90;361.08;;;;;;;15.18;55.26;100722.38;690106;28;45177;-65
2022/05/25 00:55:52;;;;;;;477.10;354.13;;;;;;;15.17;55.15;100717.97;689987;28;46354;-65
2022/05/25 00:56:17;;;;;;;475.55;349.67;;;;;;;15.12;55.10;100709.63;690141;28;23653;-65
2022/05/25 00:56:41;;;;;;;477.75;355.73;;;;;;;15.13;55.24;100720.28;686742;28;138127;-65
2022/05/25 00:57:06;;;;;;;477.65;354.70;;;;;;;15.13;54.92;100720.28;664001;28;112114;-65
2022/05/25 00:57:31;;;;;;;476.35;347.98;;;;;;;15.13;55.45;100716.75;691082;28;81160;-65
2022/05/25 00:57:52;;;;;;;474.63;346.65;;;;;;;15.12;54.94;100715.91;689784;28;115237;-65
2022/05/25 00:58:14;;;;;;;475.40;349.83;;;;;;;15.13;55.18;100724.91;693187;28;21486;-68
2022/05/25 00:58:37;;;;;;;479.00;361.55;;;;;;;15.07;55.12;100712.13;692570;28;46725;-65
2022/05/25 00:59:01;;;;;;;478.65;362.92;;;;;;;15.10;55.05;100719.88;689107;28;92330;-65
2022/05/25 00:59:27;;;;;;;477.95;357.88;;;;;;;15.10;54.89;100715.25;687584;28;115132;-65
2022/05/25 00:59:55;;;;;;;478.45;362.80;;;;;;;15.08;55.09;100713.81;687352;28;115894;-65
2022/05/25 01:00:18;;;;;;;478.63;367.52;;;;;;;15.08;55.44;100722.81;685326;28;138099;-66
2022/05/25 01:00:39;;;;;;;478.30;365.48;;;;;;;15.08;55.55;100719.25;688593;28;90327;-65
2022/05/25 01:01:01;;;;;;;478.23;369.00;;;;;;;15.06;55.10;100714.03;690605;28;21530;-65
2022/05/25 01:01:22;;;;;;;480.10;376.05;;;;;;;15.06;55.33;100708.59;689718;28;47408;-66
2022/05/25 01:01:44;;;;;;;481.17;377.35;;;;;;;15.07;55.27;100712.13;688814;28;23497;-65
2022/05/25 01:02:05;;;;;;;481.52;378.70;;;;;;;15.07;55.69;100715.69;688353;28;1753;-65
2022/05/25 01:02:28;;;;;;;481.23;379.15;;;;;;;15.07;55.68;100715.69;687795;28;23495;-65
2022/05/25 01:02:51;;;;;;;480.30;371.95;;;;;;;15.07;55.61;100710.25;686314;28;69429;-65
2022/05/25 01:03:13;;;;;;;480.95;379.45;;;;;;;15.06;55.77;100711.31;685885;28;69357;-65
2022/05/25 01:03:34;;;;;;;479.75;371.35;;;;;;;15.05;55.64;100709.63;689388;28;29758;-65
2022/05/25 01:03:56;;;;;;;478.30;362.58;;;;;;;15.06;55.61;100715.88;691204;28;23436;-65
2022/05/25 01:04:18;;;;;;;478.58;363.30;;;;;;;15.05;55.60;100720.50;690671;28;22389;-65
2022/05/25 01:04:39;;;;;;;479.75;366.30;;;;;;;15.04;55.37;100716.09;688921;28;69247;-65
2022/05/25 01:05:00;;;;;;;479.08;365.05;;;;;;;15.03;55.69;100717.16;690439;28;23417;-65
2022/05/25 01:05:26;;;;;;;477.58;358.98;;;;;;;15.01;55.73;100716.50;690930;28;22462;-66
2022/05/25 01:05:54;;;;;;;477.88;361.25;;;;;;;15.01;55.83;100721.94;688071;28;138442;-65
2022/05/25 01:06:25;;;;;;;478.05;358.50;;;;;;;14.99;55.40;100720.50;686271;28;137992;-65
2022/05/25 01:07:04;;;;;;;478.42;357.80;;;;;;;14.99;55.82;100715.88;686033;28;137838;-66
2022/05/25 01:07:45;;;;;;;477.30;352.95;;;;;;;14.99;55.96;100724.03;684456;28;137563;-65
2022/05/25 01:08:20;;;;;;;478.30;355.98;;;;;;;14.99;55.48;100723.22;686272;28;137389;-65
2022/05/25 01:08:49;;;;;;;481.20;369.27;;;;;;;14.97;55.51;100720.69;686888;28;137789;-65
2022/05/25 01:09:18;;;;;;;480.85;371.33;;;;;;;14.94;55.90;100716.50;686122;28;138407;-65
2022/05/25 01:09:47;;;;;;;478.48;362.88;;;;;;;14.93;55.74;100716.72;685653;28;160907;-65
2022/05/25 01:10:15;;;;;;;477.23;360.48;;;;;;;14.90;55.71;100720.66;686680;28;136238;-65
2022/05/25 01:10:53;;;;;;;476.25;355.42;;;;;;;14.89;55.65;100726.31;686517;28;137732;-65
2022/05/25 01:11:23;;;;;;;480.73;376.00;;;;;;;14.88;56.02;100719.22;686330;28;138318;-65
2022/05/25 01:12:01;;;;;;;479.50;367.50;;;;;;;14.86;55.99;100716.72;685070;28;136214;-66
2022/05/25 01:12:39;;;;;;;477.90;369.17;;;;;;;14.84;56.25;100721.50;685848;28;160583;-66
2022/05/25 01:13:11;;;;;;;481.50;379.17;;;;;;;14.83;55.78;100722.56;685858;28;137702;-65
2022/05/25 01:13:37;;;;;;;483.48;386.05;;;;;;;14.80;55.81;100719.41;686773;28;137784;-65
2022/05/25 01:14:07;;;;;;;481.70;384.60;;;;;;;14.76;55.96;100718.97;686015;28;159345;-65
2022/05/25 01:14:40;;;;;;;482.20;382.90;;;;;;;14.75;56.31;100720.03;686518;28;138514;-65
2022/05/25 01:15:08;;;;;;;483.10;391.85;;;;;;;14.73;56.31;100717.50;686815;28;135966;-66
2022/05/25 01:15:37;;;;;;;480.00;373.90;;;;;;;14.73;56.35;100719.38;686180;28;137730;-65
2022/05/25 01:16:04;;;;;;;482.45;386.38;;;;;;;14.72;56.43;100725.88;685383;28;137842;-65
2022/05/25 01:16:28;;;;;;;481.67;384.23;;;;;;;14.70;56.41;100726.09;686085;28;137781;-65
2022/05/25 01:17:00;;;;;;;478.33;369.75;;;;;;;14.64;56.37;100712.44;686851;28;114392;-65
2022/05/25 01:17:26;;;;;;;481.10;378.30;;;;;;;14.70;56.35;100730.66;686365;28;137716;-65
2022/05/25 01:17:57;;;;;;;478.67;373.98;;;;;;;14.68;56.14;100728.16;686659;28;138671;-66
2022/05/25 01:18:26;;;;;;;477.38;365.77;;;;;;;14.69;56.41;100729.00;686833;28;137907;-65
2022/05/25 01:18:52;;;;;;;478.63;371.05;;;;;;;14.67;56.37;100729.22;686304;28;160847;-66
2022/05/25 01:19:23;;;;;;;478.60;369.95;;;;;;;14.68;56.49;100733.59;686683;28;136479;-65
2022/05/25 01:19:58;;;;;;;478.40;364.48;;;;;;;14.67;56.53;100722.91;686343;28;137860;-66
2022/05/25 01:20:25;;;;;;;478.85;368.10;;;;;;;14.65;56.54;100728.56;686524;28;137354;-65
2022/05/25 01:20:48;;;;;;;477.83;361.17;;;;;;;14.66;56.61;100732.13;688945;28;136527;-65
2022/05/25 01:21:13;;;;;;;476.00;356.17;;;;;;;14.64;56.37;100729.63;688449;28;89720;-65
2022/05/25 01:21:42;;;;;;;475.02;347.83;;;;;;;14.62;56.77;100726.25;687301;28;113384;-65
2022/05/25 01:22:11;;;;;;;474.15;340.67;;;;;;;14.59;56.68;100735.63;687981;28;80498;-65
2022/05/25 01:22:49;;;;;;;475.52;343.30;;;;;;;14.57;56.33;100732.25;682757;28;108268;-65
2022/05/25 01:23:42;;;;;;;474.23;341.33;;;;;;;14.54;56.74;100732.66;683625;28;137784;-66
2022/05/25 01:24:12;;;;;;;476.30;351.50;;;;;;;14.50;56.49;100736.00;683504;28;138919;-66
2022/05/25 01:24:36;;;;;;;474.33;343.75;;;;;;;14.48;56.85;100732.66;685612;28;137592;-66
2022/05/25 01:25:04;;;;;;;474.20;342.20;;;;;;;14.47;56.72;100731.81;688172;28;90112;-66
2022/05/25 01:25:57;;;;;;;474.13;346.60;;;;;;;14.48;57.00;100735.38;686862;28;137957;-65
2022/05/25 01:26:48;;;;;;;475.15;344.05;;;;;;;14.47;57.24;100739.97;685741;28;158897;-66
2022/05/25 01:27:31;;;;;;;477.35;346.55;;;;;;;14.50;57.12;100739.56;673365;29;155704;-65
2022/05/25 01:27:55;;;;;;;473.52;340.75;;;;;;;14.49;56.87;100737.06;688774;28;73489;-66
2022/05/25 01:28:28;;;;;;;473.27;334.05;;;;;;;14.46;57.00;100735.56;688065;28;69442;-66
2022/05/25 01:29:03;;;;;;;472.08;328.42;;;;;;;14.48;56.82;100733.50;685651;28;158878;-65
2022/05/25 01:29:56;;;;;;;469.98;326.20;;;;;;;14.48;57.13;100738.06;686697;28;137475;-66
2022/05/25 01:30:18;;;;;;;475.00;338.45;;;;;;;14.50;56.76;100734.13;680905;28;137910;-65
2022/05/25 01:30:42;;;;;;;474.42;341.90;;;;;;;14.48;57.13;100733.50;687589;28;46502;-66
2022/05/25 01:31:07;;;;;;;475.02;350.05;;;;;;;14.53;56.88;100735.59;689326;28;70256;-66
2022/05/25 01:31:33;;;;;;;475.17;352.77;;;;;;;14.53;57.03;100739.16;686430;28;138825;-66
2022/05/25 01:31:59;;;;;;;477.02;360.02;;;;;;;14.54;56.73;100740.81;686252;28;136690;-65
2022/05/25 01:32:26;;;;;;;479.95;371.15;;;;;;;14.55;56.55;100734.34;686757;28;138831;-65
2022/05/25 01:33:02;;;;;;;478.65;368.55;;;;;;;14.56;56.70;100738.75;686567;28;138056;-65
2022/05/25 01:33:29;;;;;;;480.40;378.65;;;;;;;14.57;56.87;100740.41;687288;28;135913;-65
2022/05/25 01:33:54;;;;;;;482.40;383.27;;;;;;;14.58;56.91;100731.22;686843;28;131425;-66
2022/05/25 01:34:21;;;;;;;482.33;384.42;;;;;;;14.58;56.93;100739.38;687599;28;115087;-66
2022/05/25 01:34:49;;;;;;;481.45;379.65;;;;;;;14.57;56.56;100737.69;686144;28;137900;-66
2022/05/25 01:35:19;;;;;;;482.20;383.65;;;;;;;14.54;56.95;100732.66;685666;28;138019;-66
2022/05/25 01:35:48;;;;;;;480.90;377.63;;;;;;;14.57;56.93;100742.31;686325;28;138221;-66
2022/05/25 01:36:13;;;;;;;479.52;372.85;;;;;;;14.56;56.94;100738.75;685746;28;138630;-66
2022/05/25 01:36:39;;;;;;;479.15;370.60;;;;;;;14.56;56.62;100743.34;687688;28;115141;-66
2022/05/25 01:37:05;;;;;;;481.60;375.50;;;;;;;14.55;56.81;100741.69;685863;28;136218;-66
2022/05/25 01:37:32;;;;;;;477.67;363.33;;;;;;;14.54;56.60;100743.53;687051;28;138032;-66
2022/05/25 01:37:58;;;;;;;478.38;369.83;;;;;;;14.53;56.64;100736.44;686958;28;138087;-66
2022/05/25 01:38:23;;;;;;;478.75;374.17;;;;;;;14.53;56.63;100741.88;687371;28;136476;-66
2022/05/25 01:38:47;;;;;;;478.90;374.77;;;;;;;14.51;57.10;100737.69;687841;28;115917;-65
2022/05/25 01:39:12;;;;;;;480.02;375.80;;;;;;;14.51;56.66;100741.22;688609;28;92089;-66
2022/05/25 01:39:36;;;;;;;481.27;381.73;;;;;;;14.50;56.65;100741.44;687866;28;116116;-66
2022/05/25 01:40:04;;;;;;;481.77;387.63;;;;;;;14.46;57.08;100738.28;688464;28;92044;-67
2022/05/25 01:40:33;;;;;;;482.88;389.70;;;;;;;14.45;57.02;100736.63;687175;28;138573;-66
2022/05/25 01:40:59;;;;;;;483.20;386.05;;;;;;;14.45;56.69;100733.91;689159;28;136163;-66
2022/05/25 01:41:23;;;;;;;483.52;392.73;;;;;;;14.45;56.96;100735.78;688459;28;138934;-66
2022/05/25 01:41:48;;;;;;;484.98;401.00;;;;;;;14.35;56.86;100722.56;690352;28;90212;-66
2022/05/25 01:42:12;;;;;;;484.35;392.70;;;;;;;14.38;57.00;100733.84;690243;28;115100;-66
2022/05/25 01:42:39;;;;;;;484.90;396.50;;;;;;;14.38;56.73;100730.31;690981;28;93152;-66
2022/05/25 01:43:04;;;;;;;484.65;391.55;;;;;;;14.38;57.13;100736.56;686928;28;138661;-66
2022/05/25 01:43:30;;;;;;;482.52;384.80;;;;;;;14.37;57.08;100734.06;688151;28;115277;-66
2022/05/25 01:43:57;;;;;;;483.73;386.35;;;;;;;14.37;56.98;100737.63;686020;28;161244;-66
2022/05/25 01:44:22;;;;;;;482.23;378.27;;;;;;;14.38;56.98;100741.19;686664;28;137387;-66
2022/05/25 01:44:48;;;;;;;480.85;372.75;;;;;;;14.38;57.36;100744.72;687894;28;114541;-66
2022/05/25 01:45:10;;;;;;;479.50;365.40;;;;;;;14.37;57.07;100740.34;687283;28;137969;-66
2022/05/25 01:45:34;;;;;;;478.02;356.25;;;;;;;14.38;57.32;100733.84;690598;28;44377;-66
2022/05/25 01:45:58;;;;;;;479.50;364.15;;;;;;;14.37;57.08;100736.78;688698;28;92263;-66
2022/05/25 01:46:22;;;;;;;476.25;346.17;;;;;;;14.35;57.36;100745.13;688898;28;93106;-66
2022/05/25 01:46:46;;;;;;;476.88;348.85;;;;;;;14.33;57.36;100736.34;687495;28;92267;-66
2022/05/25 01:47:10;;;;;;;479.48;351.77;;;;;;;14.32;57.02;100740.09;688234;28;89868;-66
2022/05/25 01:47:33;;;;;;;478.42;349.58;;;;;;;14.31;57.52;100735.72;688818;28;89906;-65
2022/05/25 01:47:54;;;;;;;476.00;346.90;;;;;;;14.30;57.42;100738.63;689728;28;69451;-66
2022/05/25 01:48:17;;;;;;;476.40;350.30;;;;;;;14.30;57.51;100738.63;690673;28;21274;-65
2022/05/25 01:48:40;;;;;;;473.90;340.60;;;;;;;14.28;57.19;100746.13;689536;28;67482;-66
2022/05/25 01:49:04;;;;;;;473.67;336.05;;;;;;;14.24;57.73;100737.56;689376;28;68587;-66
2022/05/25 01:49:29;;;;;;;474.10;336.25;;;;;;;14.26;57.27;100742.78;686574;28;89346;-66
2022/05/25 01:49:54;;;;;;;476.13;341.42;;;;;;;14.24;57.28;100745.72;685915;28;114065;-66
2022/05/25 01:50:18;;;;;;;477.33;350.10;;;;;;;14.21;57.57;100746.94;686184;28;115216;-66
2022/05/25 01:50:42;;;;;;;476.33;343.63;;;;;;;14.21;57.58;100756.97;686928;28;92401;-66
2022/05/25 01:51:07;;;;;;;478.67;356.13;;;;;;;14.20;57.88;100752.56;686021;28;115081;-66
2022/05/25 01:51:33;;;;;;;476.50;349.95;;;;;;;14.18;57.99;100752.78;687035;28;138195;-66
2022/05/25 01:51:57;;;;;;;479.98;361.05;;;;;;;14.17;57.90;100747.53;687046;28;115101;-66